createdAt,value
2023-04-17T00:02:21.878Z,7.82
2023-04-17T00:04:48.224Z,6.72
2023-04-17T00:07:14.130Z,8.25
2023-04-17T00:09:39.900Z,7.18
2023-04-17T00:12:05.722Z,7.78
2023-04-17T00:14:31.517Z,8.77
2023-04-17T00:16:57.263Z,8.27
2023-04-17T00:19:23.036Z,7.47
2023-04-17T00:21:48.766Z,8.05
2023-04-17T00:24:14.651Z,7.82
2023-04-17T00:26:40.372Z,7.93
2023-04-17T00:29:06.092Z,8.98
2023-04-17T00:31:31.866Z,7.55
2023-04-17T00:33:58.267Z,8.13
2023-04-17T00:36:24.189Z,8.05
2023-04-17T00:38:50.075Z,8.18
2023-04-17T00:41:16.005Z,7.93
2023-04-17T00:43:41.839Z,9.32
2023-04-17T00:46:07.991Z,8.13
2023-04-17T00:48:34.756Z,8.40
2023-04-17T00:51:03.518Z,9.13
2023-04-17T00:53:32.301Z,8.57
2023-04-17T00:55:59.981Z,8.57
2023-04-17T00:58:26.173Z,9.20
2023-04-17T01:00:52.162Z,8.75
2023-04-17T01:03:18.167Z,8.82
2023-04-17T01:05:47.564Z,10.18
2023-04-17T01:08:13.499Z,9.85
2023-04-17T01:10:39.284Z,8.85
2023-04-17T01:13:06.380Z,8.15
2023-04-17T01:15:32.450Z,9.30
2023-04-17T01:17:58.247Z,9.18
2023-04-17T01:20:24.729Z,9.32
2023-04-17T01:22:53.631Z,9.40
2023-04-17T01:25:19.462Z,10.23
2023-04-17T01:27:45.224Z,8.52
2023-04-17T01:30:11.297Z,8.90
2023-04-17T01:32:37.107Z,9.80
2023-04-17T01:35:02.986Z,9.60
2023-04-17T01:37:28.856Z,9.80
2023-04-17T01:39:55.331Z,8.80
2023-04-17T01:42:21.696Z,10.15
2023-04-17T01:44:47.431Z,10.65
2023-04-17T01:47:13.203Z,9.88
2023-04-17T01:49:38.925Z,9.80
2023-04-17T01:52:05.018Z,11.13
2023-04-17T01:54:30.833Z,10.30
2023-04-17T01:56:56.881Z,11.32
2023-04-17T01:59:22.924Z,8.85
2023-04-17T02:01:51.878Z,10.02
2023-04-17T02:04:17.904Z,10.45
2023-04-17T02:06:43.728Z,7.63
2023-04-17T02:09:10.298Z,9.65
2023-04-17T02:11:36.205Z,10.23
2023-04-17T02:14:02.217Z,10.48
2023-04-17T02:16:28.340Z,10.38
2023-04-17T02:18:54.438Z,10.77
2023-04-17T02:21:20.651Z,9.85
2023-04-17T02:23:46.530Z,11.90
2023-04-17T02:26:12.419Z,10.02
2023-04-17T02:28:38.320Z,9.90
2023-04-17T02:31:07.920Z,9.82
2023-04-17T02:33:36.927Z,11.10
2023-04-17T02:36:08.579Z,9.23
2023-04-17T02:38:34.343Z,10.57
2023-04-17T02:41:00.287Z,9.95
2023-04-17T02:43:26.049Z,10.52
2023-04-17T02:45:51.801Z,11.32
2023-04-17T02:48:17.657Z,10.85
2023-04-17T02:50:43.544Z,10.00
2023-04-17T02:53:09.488Z,11.80
2023-04-17T02:55:35.364Z,10.13
2023-04-17T02:58:01.269Z,12.05
2023-04-17T03:00:27.421Z,10.52
2023-04-17T03:02:53.656Z,11.85
2023-04-17T03:05:29.446Z,9.48
2023-04-17T03:07:56.488Z,10.13
2023-04-17T03:10:22.204Z,10.77
2023-04-17T03:12:47.909Z,9.93
2023-04-17T03:15:13.632Z,10.93
2023-04-17T03:17:39.464Z,9.77
2023-04-17T03:20:06.837Z,11.48
2023-04-17T03:22:32.730Z,10.43
2023-04-17T03:24:58.443Z,11.35
2023-04-17T03:27:24.451Z,12.50
2023-04-17T03:29:50.709Z,9.65
2023-04-17T03:32:16.875Z,9.93
2023-04-17T03:34:42.861Z,9.88
2023-04-17T03:37:08.592Z,11.25
2023-04-17T03:39:34.387Z,11.57
2023-04-17T03:42:00.354Z,12.57
2023-04-17T03:44:26.217Z,10.90
2023-04-17T03:46:51.949Z,10.98
2023-04-17T03:49:17.688Z,10.98
2023-04-17T03:51:43.469Z,10.60
2023-04-17T03:54:09.234Z,12.60
2023-04-17T03:56:35.442Z,10.35
2023-04-17T03:59:02.304Z,11.95
2023-04-17T04:01:28.058Z,10.27
2023-04-17T04:03:54.248Z,11.18
2023-04-17T04:06:21.772Z,9.48
2023-04-17T04:08:48.592Z,10.90
2023-04-17T04:11:14.909Z,11.15
2023-04-17T04:13:40.826Z,12.15
2023-04-17T04:16:06.853Z,9.27
2023-04-17T04:18:32.847Z,10.35
2023-04-17T04:20:58.575Z,10.40
2023-04-17T04:23:24.438Z,12.65
2023-04-17T04:25:50.485Z,12.75
2023-04-17T04:28:17.124Z,13.48
2023-04-17T04:30:49.908Z,12.15
2023-04-17T04:33:19.379Z,11.98
2023-04-17T04:35:46.906Z,10.75
2023-04-17T04:38:13.400Z,11.93
2023-04-17T04:40:39.327Z,11.77
2023-04-17T04:43:06.076Z,12.35
2023-04-17T04:45:31.995Z,12.52
2023-04-17T04:47:57.876Z,12.65
2023-04-17T04:50:23.701Z,11.63
2023-04-17T04:52:49.425Z,11.65
2023-04-17T04:55:15.167Z,13.32
2023-04-17T04:57:41.021Z,12.27
2023-04-17T05:00:08.513Z,12.68
2023-04-17T05:02:35.020Z,12.80
2023-04-17T05:05:03.854Z,11.93
2023-04-17T05:07:34.483Z,11.65
2023-04-17T05:10:01.199Z,13.30
2023-04-17T05:12:28.108Z,13.30
2023-04-17T05:14:57.608Z,12.13
2023-04-17T05:17:23.721Z,12.40
2023-04-17T05:19:50.069Z,12.50
2023-04-17T05:24:57.842Z,11.88
2023-04-17T05:30:09.268Z,13.57
2023-04-17T05:35:17.453Z,12.07
2023-04-17T05:37:45.731Z,12.50
2023-04-17T05:40:12.925Z,13.23
2023-04-17T05:42:42.988Z,12.45
2023-04-17T05:45:24.261Z,12.98
2023-04-17T05:47:53.299Z,11.65
2023-04-17T05:50:20.048Z,11.05
2023-04-17T05:52:48.126Z,12.63
2023-04-17T05:55:16.067Z,11.95
2023-04-17T05:57:42.859Z,12.50
2023-04-17T06:00:12.890Z,12.82
2023-04-17T06:05:13.609Z,12.48
2023-04-17T06:07:40.306Z,12.93
2023-04-17T06:10:08.691Z,13.30
2023-04-17T06:15:33.249Z,11.63
2023-04-17T06:18:00.386Z,12.80
2023-04-17T06:20:26.405Z,12.18
2023-04-17T06:23:01.986Z,13.40
2023-04-17T06:25:30.860Z,11.48
2023-04-17T06:27:57.138Z,14.10
2023-04-17T06:33:13.500Z,13.73
2023-04-17T06:35:53.559Z,15.02
2023-04-17T06:38:20.060Z,13.33
2023-04-17T06:40:48.700Z,15.18
2023-04-17T06:43:30.405Z,14.13
2023-04-17T06:46:13.926Z,13.05
2023-04-17T06:48:40.885Z,16.23
2023-04-17T06:56:19.132Z,15.40
2023-04-17T06:58:46.056Z,15.80
2023-04-17T07:01:15.149Z,14.43
2023-04-17T07:03:42.219Z,16.27
2023-04-17T07:06:08.379Z,14.82
2023-04-17T07:11:15.258Z,15.40
2023-04-17T07:16:33.921Z,13.93
2023-04-17T07:41:44.718Z,16.77
2023-04-17T07:44:13.429Z,17.25
2023-04-17T07:50:04.811Z,15.48
2023-04-17T07:52:38.295Z,15.73
2023-04-17T07:55:04.967Z,16.73
2023-04-17T08:00:14.824Z,16.05
2023-04-17T08:02:41.994Z,15.60
2023-04-17T08:05:08.844Z,15.55
2023-04-17T08:07:35.488Z,17.00
2023-04-17T08:10:03.336Z,16.75
2023-04-17T08:12:30.220Z,16.75
2023-04-17T08:14:56.882Z,17.25
2023-04-17T08:17:30.853Z,17.08
2023-04-17T08:20:01.880Z,15.68
2023-04-17T08:22:32.351Z,17.25
2023-04-17T08:25:08.795Z,16.17
2023-04-17T08:27:38.178Z,17.73
2023-04-17T08:30:14.300Z,17.02
2023-04-17T08:32:44.292Z,17.65
2023-04-17T08:37:56.207Z,14.63
2023-04-17T08:40:28.780Z,14.43
2023-04-17T08:42:56.957Z,14.02
2023-04-17T08:48:17.073Z,14.15
2023-04-17T08:50:47.945Z,12.15
2023-04-17T08:56:04.144Z,12.40
2023-04-17T08:58:37.273Z,13.52
2023-04-17T09:01:09.078Z,12.02
2023-04-17T09:03:45.446Z,13.48
2023-04-17T09:06:12.765Z,11.70
2023-04-17T09:08:39.780Z,13.27
2023-04-17T09:11:17.530Z,13.98
2023-04-17T09:13:44.029Z,13.23
2023-04-17T09:16:16.862Z,12.82
2023-04-17T09:18:43.041Z,12.18
2023-04-17T09:21:10.109Z,12.15
2023-04-17T09:23:54.000Z,12.32
2023-04-17T09:26:21.108Z,13.20
2023-04-17T09:29:10.617Z,11.70
2023-04-17T09:31:41.401Z,12.35
2023-04-17T09:34:13.676Z,12.25
2023-04-17T09:36:42.021Z,12.98
2023-04-17T09:39:26.884Z,11.68
2023-04-17T09:42:04.241Z,11.32
2023-04-17T09:44:30.874Z,10.77
2023-04-17T09:47:01.580Z,10.55
2023-04-17T09:49:38.927Z,10.10
2023-04-17T09:52:05.524Z,11.32
2023-04-17T09:54:32.613Z,11.43
2023-04-17T09:56:58.813Z,9.80
2023-04-17T09:59:25.378Z,9.30
2023-04-17T10:01:54.059Z,10.38
2023-04-17T10:04:22.055Z,9.90
2023-04-17T10:06:49.419Z,9.85
2023-04-17T10:09:15.894Z,10.02
2023-04-17T10:11:43.616Z,11.48
2023-04-17T10:14:12.647Z,9.73
2023-04-17T10:19:31.276Z,9.98
2023-04-17T10:25:11.147Z,12.07
2023-04-17T10:27:38.993Z,11.02
2023-04-17T10:30:09.203Z,12.25
2023-04-17T10:32:44.231Z,10.70
2023-04-17T10:35:16.615Z,10.20
2023-04-17T10:37:52.315Z,11.35
2023-04-17T10:40:22.678Z,11.15
2023-04-17T10:43:01.821Z,10.60
2023-04-17T10:46:06.557Z,10.95
2023-04-17T10:48:37.174Z,11.30
2023-04-17T10:51:22.040Z,8.82
2023-04-17T10:53:51.735Z,9.35
2023-04-17T10:56:24.334Z,7.18
2023-04-17T10:58:59.274Z,8.20
2023-04-17T11:01:28.856Z,8.48
2023-04-17T11:03:58.985Z,8.37
2023-04-17T11:06:27.423Z,8.75
2023-04-17T11:08:55.512Z,8.82
2023-04-17T11:11:35.326Z,8.48
2023-04-17T11:14:16.176Z,7.70
2023-04-17T11:16:43.047Z,9.63
2023-04-17T11:19:09.693Z,7.22
2023-04-17T11:21:41.896Z,7.40
2023-04-17T11:24:09.209Z,8.23
2023-04-17T11:26:45.057Z,8.23
2023-04-17T11:29:19.137Z,7.57
2023-04-17T11:31:46.326Z,7.40
2023-04-17T11:34:18.478Z,8.13
2023-04-17T11:36:57.690Z,8.95
2023-04-17T11:39:24.669Z,7.88
2023-04-17T11:41:50.971Z,8.35
2023-04-17T11:44:17.937Z,6.88
2023-04-17T11:46:51.375Z,8.27
2023-04-17T11:49:36.942Z,7.80
2023-04-17T11:52:04.468Z,6.90
2023-04-17T11:54:35.208Z,7.68
2023-04-17T11:57:18.043Z,7.18
2023-04-17T11:59:45.166Z,7.90
2023-04-17T12:02:14.034Z,7.43
2023-04-17T12:04:40.593Z,7.82
2023-04-17T12:07:08.037Z,7.82
2023-04-17T12:09:34.785Z,7.80
2023-04-17T12:12:03.559Z,7.35
2023-04-17T12:14:29.967Z,6.70
2023-04-17T12:20:19.932Z,6.65
2023-04-17T12:25:27.981Z,7.78
2023-04-17T12:27:56.122Z,7.78
2023-04-17T12:30:24.230Z,7.60
2023-04-17T12:32:54.154Z,6.18
2023-04-17T12:35:26.864Z,6.60
2023-04-17T12:37:57.348Z,5.10
2023-04-17T12:40:31.035Z,6.88
2023-04-17T12:43:01.737Z,7.80
2023-04-17T12:45:35.855Z,7.15
2023-04-17T12:48:02.024Z,5.95
2023-04-17T12:50:28.236Z,7.65
2023-04-17T12:52:54.326Z,8.10
2023-04-17T12:55:21.242Z,6.68
2023-04-17T12:57:47.908Z,6.97
2023-04-17T13:00:14.251Z,6.40
2023-04-17T13:02:41.527Z,8.48
2023-04-17T13:05:07.891Z,7.43
2023-04-17T13:07:33.936Z,7.65
2023-04-17T13:10:04.273Z,6.72
2023-04-17T13:12:30.220Z,6.88
2023-04-17T13:15:14.995Z,7.75
2023-04-17T13:17:45.489Z,6.57
2023-04-17T13:20:14.914Z,7.57
2023-04-17T13:22:41.171Z,8.52
2023-04-17T13:25:09.565Z,8.05
2023-04-17T13:27:36.025Z,8.63
2023-04-17T13:30:03.395Z,7.78
2023-04-17T13:32:31.069Z,8.95
2023-04-17T13:35:00.012Z,8.65
2023-04-17T13:37:27.058Z,6.72
2023-04-17T13:39:53.814Z,9.70
2023-04-17T13:42:20.361Z,9.32
2023-04-17T13:44:55.399Z,9.07
2023-04-17T13:47:23.835Z,8.13
2023-04-17T13:49:53.610Z,7.80
2023-04-17T13:55:01.390Z,9.07
2023-04-17T13:57:27.899Z,7.88
2023-04-17T13:59:54.166Z,8.68
2023-04-17T14:02:21.606Z,8.88
2023-04-17T14:04:48.322Z,9.52
2023-04-17T14:07:16.080Z,8.48
2023-04-17T14:09:42.611Z,8.02
2023-04-17T14:20:03.187Z,8.98
2023-04-17T14:25:11.154Z,8.90
2023-04-17T14:27:37.619Z,10.40
2023-04-17T14:30:04.887Z,7.88
2023-04-17T14:32:31.068Z,8.57
2023-04-17T14:34:57.049Z,8.95
2023-04-17T14:40:04.402Z,10.50
2023-04-17T14:42:32.673Z,9.75
2023-04-17T14:45:05.946Z,10.07
2023-04-17T14:47:33.296Z,9.63
2023-04-17T14:49:59.756Z,11.20
2023-04-17T14:52:28.657Z,10.32
2023-04-17T14:55:03.399Z,10.63
2023-04-17T14:57:32.876Z,9.50
2023-04-17T14:59:59.164Z,11.10
2023-04-17T15:02:26.638Z,10.82
2023-04-17T15:04:52.693Z,10.98
2023-04-17T15:07:19.002Z,11.55
2023-04-17T15:09:47.795Z,10.90
2023-04-17T15:12:13.984Z,11.57
2023-04-17T15:14:39.830Z,11.52
2023-04-17T15:17:06.474Z,11.13
2023-04-17T15:19:33.177Z,11.82
2023-04-17T15:22:09.210Z,13.57
2023-04-17T15:24:35.213Z,13.00
2023-04-17T15:29:42.673Z,12.60
2023-04-17T15:32:08.880Z,14.18
2023-04-17T15:34:36.126Z,11.90
2023-04-17T15:37:02.121Z,11.93
2023-04-17T15:39:28.121Z,13.32
2023-04-17T15:41:58.624Z,13.68
2023-04-17T15:44:25.116Z,13.90
2023-04-17T15:47:39.413Z,12.63
2023-04-17T15:50:06.104Z,13.70
2023-04-17T15:52:32.001Z,13.73
2023-04-17T15:54:58.131Z,11.95
2023-04-17T15:57:24.049Z,13.38
2023-04-17T16:07:25.354Z,11.60
2023-04-17T16:09:54.763Z,10.95
2023-04-17T16:12:20.923Z,11.05
2023-04-17T16:14:49.843Z,10.00
2023-04-17T16:17:16.613Z,8.77
2023-04-17T16:19:45.230Z,9.68
2023-04-17T16:22:11.785Z,8.45
2023-04-17T16:24:38.122Z,8.77
2023-04-17T16:27:05.778Z,8.77
2023-04-17T16:29:32.233Z,8.32
2023-04-17T16:31:59.117Z,9.18
2023-04-17T16:34:26.024Z,8.27
2023-04-17T16:39:35.834Z,7.85
2023-04-17T16:42:07.041Z,7.07
2023-04-17T16:44:34.271Z,7.82
2023-04-17T16:47:12.732Z,7.45
2023-04-17T16:49:41.648Z,8.53
2023-04-17T16:52:09.364Z,8.63
2023-04-17T16:54:35.393Z,8.07
2023-04-17T16:57:02.848Z,9.45
2023-04-17T16:59:28.836Z,9.32
2023-04-17T17:01:54.833Z,9.20
2023-04-17T17:04:20.697Z,10.00
2023-04-17T17:06:46.887Z,10.15
2023-04-17T17:09:13.221Z,8.48
2023-04-17T17:11:39.553Z,8.48
2023-04-17T17:14:05.521Z,9.27
2023-04-17T17:16:50.328Z,8.57
2023-04-17T17:19:16.245Z,9.70
2023-04-17T17:21:42.497Z,8.68
2023-04-17T17:24:08.402Z,7.80
2023-04-17T17:26:37.065Z,6.88
2023-04-17T17:29:03.383Z,6.47
2023-04-17T17:31:33.505Z,7.95
2023-04-17T17:34:16.296Z,7.80
2023-04-17T17:36:48.268Z,7.78
2023-04-17T17:39:23.208Z,7.95
2023-04-17T17:41:50.046Z,8.73
2023-04-17T17:44:17.615Z,8.25
2023-04-17T17:46:44.133Z,7.80
2023-04-17T17:49:10.612Z,7.22
2023-04-17T17:51:38.204Z,8.43
2023-04-17T17:54:04.272Z,8.07
2023-04-17T17:56:30.172Z,9.95
2023-04-17T17:58:56.227Z,9.25
2023-04-17T18:01:24.459Z,9.85
2023-04-17T18:03:50.918Z,9.50
2023-04-17T18:06:16.902Z,10.65
2023-04-17T18:09:09.952Z,9.15
2023-04-17T18:17:59.147Z,10.90
2023-04-17T18:20:25.319Z,10.93
2023-04-17T18:22:52.628Z,10.65
2023-04-17T18:25:19.732Z,11.13
2023-04-17T18:27:45.615Z,10.63
2023-04-17T18:30:12.812Z,10.88
2023-04-17T18:32:39.127Z,10.90
2023-04-17T18:35:17.957Z,11.55
2023-04-17T18:37:45.298Z,9.80
2023-04-17T18:40:12.446Z,12.38
2023-04-17T18:42:41.339Z,11.52
2023-04-17T18:45:22.356Z,10.65
2023-04-17T18:50:32.387Z,11.85
2023-04-17T18:52:58.326Z,11.13
2023-04-17T18:58:07.694Z,14.05
2023-04-17T19:06:08.829Z,12.10
2023-04-17T19:08:35.509Z,12.80
2023-04-17T19:11:09.382Z,10.43
2023-04-17T19:13:35.622Z,6.78
2023-04-17T19:16:23.461Z,13.05
2023-04-17T19:18:49.865Z,12.10
2023-04-17T19:21:16.530Z,13.48
2023-04-17T19:23:43.274Z,11.77
2023-04-17T19:26:09.236Z,13.88
2023-04-17T19:28:35.372Z,11.82
2023-04-17T19:31:04.205Z,15.50
2023-04-17T19:33:31.604Z,13.55
2023-04-17T19:35:57.852Z,12.48
2023-04-17T19:38:26.228Z,13.02
2023-04-17T19:41:16.565Z,14.52
2023-04-17T19:43:50.539Z,12.57
2023-04-17T19:46:17.616Z,13.32
2023-04-17T19:48:45.440Z,14.40
2023-04-17T19:51:11.918Z,13.40
2023-04-17T19:53:39.199Z,14.35
2023-04-17T19:56:08.102Z,13.23
2023-04-17T19:58:35.256Z,15.38
2023-04-17T20:01:01.151Z,13.35
2023-04-17T20:03:28.951Z,14.07
2023-04-17T20:05:55.675Z,14.43
2023-04-17T20:08:22.449Z,13.27
2023-04-17T20:10:49.208Z,13.95
2023-04-17T20:13:17.936Z,15.77
2023-04-17T20:19:06.362Z,14.38
2023-04-17T20:21:32.330Z,14.15
2023-04-17T20:23:58.906Z,16.23
2023-04-17T20:26:26.034Z,15.00
2023-04-17T20:28:54.109Z,12.90
2023-04-17T20:31:21.056Z,14.07
2023-04-17T20:33:48.295Z,14.77
2023-04-17T20:36:15.191Z,15.43
2023-04-17T20:38:41.469Z,12.75
2023-04-17T20:41:07.551Z,15.38
2023-04-17T20:43:36.806Z,14.93
2023-04-17T20:46:02.692Z,15.00
2023-04-17T20:48:28.744Z,16.05
2023-04-17T20:50:54.858Z,13.73
2023-04-17T20:53:21.512Z,15.65
2023-04-17T20:55:47.744Z,15.93
2023-04-17T20:58:13.752Z,14.75
2023-04-17T21:00:54.069Z,15.93
2023-04-17T21:03:25.991Z,13.15
2023-04-17T21:05:52.248Z,14.35
2023-04-17T21:08:44.178Z,14.95
2023-04-17T21:11:10.363Z,16.00
2023-04-17T21:13:39.267Z,14.27
2023-04-17T21:16:30.870Z,15.23
2023-04-17T21:18:56.873Z,15.40
2023-04-17T21:21:23.226Z,13.40
2023-04-17T21:23:52.014Z,13.50
2023-04-17T21:26:18.141Z,14.60
2023-04-17T21:28:43.960Z,16.38
2023-04-17T21:31:12.841Z,15.75
2023-04-17T21:33:38.611Z,14.63
2023-04-17T21:36:04.694Z,13.63
2023-04-17T21:38:30.410Z,13.82
2023-04-17T21:40:57.477Z,12.68
2023-04-17T21:43:23.463Z,13.68
2023-04-17T21:45:49.399Z,15.38
2023-04-17T21:48:15.480Z,12.50
2023-04-17T21:50:41.367Z,13.27
2023-04-17T21:53:07.335Z,13.57
2023-04-17T21:55:37.425Z,12.18
2023-04-17T21:58:03.310Z,14.70
2023-04-17T22:00:29.135Z,11.07
2023-04-17T22:02:55.149Z,13.52
2023-04-17T22:05:20.936Z,13.55
2023-04-17T22:07:54.522Z,15.98
2023-04-17T22:10:21.513Z,11.57
2023-04-17T22:12:47.236Z,11.75
2023-04-17T22:15:12.946Z,14.82
2023-04-17T22:17:38.787Z,13.70
2023-04-17T22:20:04.856Z,13.40
2023-04-17T22:22:30.588Z,13.75
2023-04-17T22:24:56.584Z,10.13
2023-04-17T22:27:22.498Z,13.32
2023-04-17T22:29:48.213Z,13.55
2023-04-17T22:32:13.934Z,11.98
2023-04-17T22:34:41.909Z,12.65
2023-04-17T22:37:08.227Z,11.95
2023-04-17T22:39:33.952Z,12.73
2023-04-17T22:42:00.448Z,12.20
2023-04-17T22:44:26.172Z,12.60
2023-04-17T22:46:54.904Z,13.00
2023-04-17T22:49:20.707Z,13.10
2023-04-17T22:51:47.225Z,10.82
2023-04-17T22:54:22.162Z,13.45
2023-04-17T22:56:49.011Z,11.52
2023-04-17T22:59:14.802Z,10.95
2023-04-17T23:01:40.580Z,11.23
2023-04-17T23:04:06.410Z,12.63
2023-04-17T23:06:32.143Z,12.68
2023-04-17T23:08:57.840Z,11.10
2023-04-17T23:11:23.580Z,13.55
2023-04-17T23:13:49.320Z,12.30
2023-04-17T23:16:16.714Z,13.80
2023-04-17T23:18:43.633Z,13.50
2023-04-17T23:21:09.449Z,11.77
2023-04-17T23:23:35.618Z,11.85
2023-04-17T23:26:01.416Z,12.30
2023-04-17T23:28:29.840Z,13.35
2023-04-17T23:31:02.824Z,12.05
2023-04-17T23:33:28.586Z,13.50
2023-04-17T23:35:54.725Z,13.13
2023-04-17T23:38:20.514Z,12.70
2023-04-17T23:40:46.416Z,11.85
2023-04-17T23:43:12.306Z,11.90
2023-04-17T23:45:38.116Z,10.55
2023-04-17T23:48:03.892Z,12.30
2023-04-17T23:50:29.711Z,12.20
2023-04-17T23:52:55.490Z,10.15
2023-04-17T23:55:21.635Z,11.05
2023-04-17T23:57:47.363Z,13.10
